Time;durP1;ratioP1;P1;durP2;ratioP2;P2;SDS_P1;SDS_P2;PMS_P1;PMS_P2;Temp;Humidity;BMP_temperature;BMP_pressure;BME280_temperature;BME280_humidity;BME280_pressure;Samples;Min_cycle;Max_cycle;Signal;HPM_P1;HPM_P2
2024/02/17 00:00:04;;;;;;;5.18;4.22;;;;;14.20;99242.00;;;;4843623;29;20056;-69
2024/02/17 00:02:32;;;;;;;8.90;6.32;;;;;14.30;99248.00;;;;4844354;29;20140;-70
2024/02/17 00:04:59;;;;;;;6.53;5.18;;;;;14.20;99259.00;;;;4844247;29;20065;-70
2024/02/17 00:07:25;;;;;;;7.22;5.05;;;;;14.20;99256.00;;;;4858908;29;20062;-70
2024/02/17 00:09:52;;;;;;;7.18;5.53;;;;;14.20;99267.00;;;;4837186;29;20149;-70
2024/02/17 00:12:19;;;;;;;5.68;4.80;;;;;14.10;99262.00;;;;4843560;29;20050;-73
2024/02/17 00:14:45;;;;;;;6.38;4.85;;;;;14.10;99264.00;;;;4842662;29;20046;-70
2024/02/17 00:17:12;;;;;;;6.72;5.57;;;;;14.10;99279.00;;;;4842543;29;20054;-70
2024/02/17 00:19:40;;;;;;;6.03;4.75;;;;;14.10;99264.00;;;;4843442;29;20125;-70
2024/02/17 00:22:07;;;;;;;7.15;5.30;;;;;14.00;99274.00;;;;4842162;29;20050;-71
2024/02/17 00:24:34;;;;;;;6.20;5.32;;;;;14.00;99272.00;;;;4827140;29;20106;-70
2024/02/17 00:27:00;;;;;;;4.85;4.40;;;;;14.00;99281.00;;;;4843304;29;20042;-70
2024/02/17 00:29:27;;;;;;;5.75;5.15;;;;;14.00;99282.00;;;;4842127;29;20076;-70
2024/02/17 00:31:54;;;;;;;6.65;5.05;;;;;14.00;99290.00;;;;4843270;29;20518;-70
2024/02/17 00:34:20;;;;;;;6.47;5.45;;;;;14.00;99288.00;;;;4843383;29;20484;-70
2024/02/17 00:36:47;;;;;;;5.95;4.93;;;;;14.10;99293.00;;;;4842069;29;20492;-70
2024/02/17 00:39:14;;;;;;;6.90;5.25;;;;;14.10;99292.00;;;;4846989;29;20077;-70
2024/02/17 00:41:42;;;;;;;8.52;5.75;;;;;14.10;99295.00;;;;4852775;29;20058;-70
2024/02/17 00:44:09;;;;;;;7.38;5.47;;;;;14.20;99294.00;;;;4843102;29;20503;-70
2024/02/17 00:46:36;;;;;;;6.93;5.65;;;;;14.20;99298.00;;;;4843188;29;20269;-70
2024/02/17 00:49:02;;;;;;;7.63;5.78;;;;;14.20;99299.00;;;;4856945;29;20109;-69
2024/02/17 00:51:29;;;;;;;7.13;5.78;;;;;14.20;99309.00;;;;4841968;29;20116;-70
2024/02/17 00:53:56;;;;;;;6.53;5.75;;;;;14.20;99305.00;;;;4842162;29;20113;-69
2024/02/17 00:56:22;;;;;;;7.22;6.10;;;;;14.20;99310.00;;;;4842987;29;20579;-69
2024/02/17 00:58:50;;;;;;;9.60;6.50;;;;;14.20;99310.00;;;;4841793;29;20049;-69
2024/02/17 01:01:17;;;;;;;7.32;6.13;;;;;14.20;99309.00;;;;4842913;29;20098;-69
2024/02/17 01:03:55;;;;;;;8.68;5.88;;;;;14.20;99317.00;;;;4841469;29;20078;-70
2024/02/17 01:06:23;;;;;;;9.10;6.75;;;;;14.20;99314.00;;;;4842893;29;20579;-70
2024/02/17 01:08:50;;;;;;;7.18;6.00;;;;;14.20;99324.00;;;;4860611;29;20434;-70
2024/02/17 01:11:18;;;;;;;7.18;5.97;;;;;14.20;99323.00;;;;4856699;29;20400;-70
2024/02/17 01:13:46;;;;;;;11.20;7.40;;;;;14.10;99326.00;;;;4841491;29;20389;-69
2024/02/17 01:16:13;;;;;;;12.98;7.10;;;;;14.10;99328.00;;;;4842701;29;20334;-70
2024/02/17 01:18:40;;;;;;;10.93;6.93;;;;;14.00;99332.00;;;;4842626;29;20045;-70
2024/02/17 01:21:06;;;;;;;10.18;7.55;;;;;13.90;99331.00;;;;4842520;29;20052;-70
2024/02/17 01:23:33;;;;;;;12.20;6.78;;;;;13.90;99333.00;;;;4842399;29;20381;-69
2024/02/17 01:26:00;;;;;;;11.52;7.18;;;;;13.90;99332.00;;;;4841294;29;20054;-70
2024/02/17 01:28:26;;;;;;;7.43;5.88;;;;;13.80;99331.00;;;;4825884;29;20050;-70
2024/02/17 01:30:53;;;;;;;7.38;5.78;;;;;13.70;99352.00;;;;4842371;29;20097;-70
2024/02/17 01:33:20;;;;;;;10.00;7.28;;;;;13.70;99336.00;;;;4841064;29;20144;-69
2024/02/17 01:35:46;;;;;;;7.72;6.20;;;;;13.60;99348.00;;;;4841032;29;20077;-70
2024/02/17 01:38:13;;;;;;;8.38;6.80;;;;;13.50;99345.00;;;;4845032;29;20073;-70
2024/02/17 01:40:41;;;;;;;8.35;6.45;;;;;13.50;99355.00;;;;4840751;29;20153;-69
2024/02/17 01:43:07;;;;;;;8.40;6.47;;;;;13.40;99361.00;;;;4840844;29;20110;-70
2024/02/17 01:45:34;;;;;;;7.03;6.20;;;;;13.30;99366.00;;;;4840808;29;20050;-70
2024/02/17 01:48:01;;;;;;;8.98;6.95;;;;;13.20;99368.00;;;;4842054;29;20049;-70
2024/02/17 01:50:28;;;;;;;8.13;7.10;;;;;13.20;99372.00;;;;4841768;29;20052;-69
2024/02/17 01:52:55;;;;;;;9.40;7.28;;;;;13.20;99374.00;;;;4842048;29;20140;-69
2024/02/17 01:55:23;;;;;;;8.52;6.45;;;;;13.10;99377.00;;;;4840778;29;20046;-70
2024/02/17 01:57:50;;;;;;;8.15;6.78;;;;;13.10;99374.00;;;;4842491;29;20061;-70
2024/02/17 02:00:18;;;;;;;7.90;6.35;;;;;13.00;99379.00;;;;4841882;29;20500;-70
2024/02/17 02:02:48;;;;;;;8.32;6.40;;;;;13.00;99373.00;;;;4840919;29;20094;-70
2024/02/17 02:05:14;;;;;;;11.10;7.00;;;;;13.00;99378.00;;;;4840510;29;20418;-70
2024/02/17 02:07:41;;;;;;;8.82;6.82;;;;;12.90;99380.00;;;;4845296;29;20085;-70
2024/02/17 02:10:08;;;;;;;9.35;7.07;;;;;12.90;99380.00;;;;4841030;29;20121;-70
2024/02/17 02:12:35;;;;;;;8.05;6.68;;;;;12.90;99388.00;;;;4841394;29;20046;-70
2024/02/17 02:15:03;;;;;;;8.00;7.00;;;;;12.80;99388.00;;;;4841739;29;20050;-70
2024/02/17 02:17:30;;;;;;;8.45;6.80;;;;;12.80;99384.00;;;;4841609;29;20049;-70
2024/02/17 02:19:57;;;;;;;10.68;7.50;;;;;12.80;99389.00;;;;4840293;29;20046;-69
2024/02/17 02:22:23;;;;;;;8.57;6.75;;;;;12.70;99397.00;;;;4841707;29;20074;-69
2024/02/17 02:24:54;;;;;;;7.75;6.03;;;;;12.60;99401.00;;;;4841532;29;20389;-69
2024/02/17 02:27:20;;;;;;;7.40;5.85;;;;;12.50;99393.00;;;;4841555;29;20075;-70
2024/02/17 02:29:47;;;;;;;9.43;5.65;;;;;12.50;99394.00;;;;4840345;29;20057;-70
2024/02/17 02:32:13;;;;;;;7.10;5.43;;;;;12.40;99398.00;;;;4840364;29;20073;-69
2024/02/17 02:34:40;;;;;;;6.57;5.43;;;;;12.40;99393.00;;;;4841453;29;20464;-69
2024/02/17 02:37:07;;;;;;;6.25;5.15;;;;;12.30;99410.00;;;;4840086;29;20079;-70
2024/02/17 02:39:33;;;;;;;7.15;4.57;;;;;12.30;99405.00;;;;4843866;29;20045;-69
2024/02/17 02:42:00;;;;;;;7.85;5.63;;;;;12.20;99406.00;;;;4839959;29;20058;-69
2024/02/17 02:44:26;;;;;;;36.53;7.25;;;;;12.20;99416.00;;;;4840055;29;20074;-71
2024/02/17 02:46:53;;;;;;;16.85;5.68;;;;;12.10;99402.00;;;;4841343;29;20415;-71
2024/02/17 02:49:19;;;;;;;39.42;5.68;;;;;12.00;99415.00;;;;4839795;29;20611;-71
2024/02/17 02:51:46;;;;;;;10.52;4.25;;;;;11.90;99427.00;;;;4841183;29;20054;-71
2024/02/17 02:54:13;;;;;;;24.35;4.65;;;;;11.80;99422.00;;;;4839958;29;20128;-68
2024/02/17 02:56:39;;;;;;;15.52;4.75;;;;;11.80;99435.00;;;;4841191;29;20046;-71
2024/02/17 02:59:06;;;;;;;5.72;4.30;;;;;11.70;99418.00;;;;4841072;29;20065;-70
2024/02/17 03:01:32;;;;;;;5.15;4.10;;;;;11.70;99432.00;;;;4841150;29;20053;-70
2024/02/17 03:03:59;;;;;;;7.68;3.72;;;;;11.70;99441.00;;;;4840991;29;20042;-70
2024/02/17 03:06:27;;;;;;;4.40;4.00;;;;;11.70;99444.00;;;;4839932;29;20550;-71
2024/02/17 03:08:53;;;;;;;5.93;4.05;;;;;11.60;99448.00;;;;4843597;29;20073;-70
2024/02/17 03:11:20;;;;;;;6.80;5.15;;;;;11.60;99442.00;;;;4841112;29;20057;-68
2024/02/17 03:13:47;;;;;;;6.55;4.82;;;;;11.60;99448.00;;;;4841113;29;20050;-67
2024/02/17 03:16:26;;;;;;;6.97;4.53;;;;;11.60;99443.00;;;;4841740;29;20495;-66
2024/02/17 03:18:53;;;;;;;9.15;4.57;;;;;11.60;99447.00;;;;4844432;29;20122;-67
2024/02/17 03:21:20;;;;;;;9.10;6.07;;;;;11.50;99456.00;;;;4844462;29;20488;-66
2024/02/17 03:23:47;;;;;;;6.43;5.15;;;;;11.50;99462.00;;;;4844709;29;20060;-68
2024/02/17 03:26:13;;;;;;;5.65;4.90;;;;;11.40;99462.00;;;;4844579;29;20123;-66
2024/02/17 03:28:40;;;;;;;7.65;5.55;;;;;11.40;99463.00;;;;4843108;29;20057;-66
2024/02/17 03:31:06;;;;;;;8.23;5.57;;;;;11.40;99473.00;;;;4843438;29;20138;-66
2024/02/17 03:33:33;;;;;;;9.63;6.38;;;;;11.40;99476.00;;;;4844435;29;20050;-69
2024/02/17 03:36:00;;;;;;;8.65;6.35;;;;;11.30;99474.00;;;;4844496;29;20050;-66
2024/02/17 03:38:26;;;;;;;9.10;6.43;;;;;11.30;99477.00;;;;4848274;29;20046;-66
2024/02/17 03:40:53;;;;;;;7.70;6.03;;;;;11.20;99478.00;;;;4843002;29;20130;-66
2024/02/17 03:43:19;;;;;;;6.60;4.93;;;;;11.20;99482.00;;;;4844311;29;20060;-69
2024/02/17 03:45:46;;;;;;;6.43;5.40;;;;;11.20;99488.00;;;;4844287;29;20125;-69
2024/02/17 03:48:13;;;;;;;6.82;4.97;;;;;11.20;99492.00;;;;4842634;29;20061;-69
2024/02/17 03:50:40;;;;;;;5.82;5.07;;;;;11.10;99497.00;;;;4844130;29;20046;-69
2024/02/17 03:53:06;;;;;;;7.40;4.90;;;;;11.00;99501.00;;;;4842870;29;20078;-68
2024/02/17 03:55:33;;;;;;;5.63;4.60;;;;;11.00;99501.00;;;;4858164;29;20531;-69
2024/02/17 03:57:59;;;;;;;4.82;4.25;;;;;11.00;99510.00;;;;4843901;29;20338;-69
2024/02/17 04:00:26;;;;;;;6.38;4.50;;;;;10.90;99510.00;;;;4843777;29;20084;-69
2024/02/17 04:02:52;;;;;;;6.32;4.10;;;;;10.90;99515.00;;;;4858086;29;20068;-70
2024/02/17 04:05:19;;;;;;;6.43;4.45;;;;;10.90;99522.00;;;;4843864;29;20508;-70
2024/02/17 04:07:46;;;;;;;4.53;3.80;;;;;10.80;99512.00;;;;4847471;29;20060;-69
2024/02/17 04:10:15;;;;;;;4.38;3.88;;;;;10.80;99518.00;;;;4857720;29;20462;-70
2024/02/17 04:12:42;;;;;;;4.78;4.10;;;;;10.80;99525.00;;;;4842501;29;20136;-69
2024/02/17 04:15:09;;;;;;;6.10;4.20;;;;;10.80;99525.00;;;;4843756;29;20099;-70
2024/02/17 04:17:36;;;;;;;4.28;3.83;;;;;10.70;99536.00;;;;4843733;29;20049;-70
2024/02/17 04:20:04;;;;;;;5.45;3.90;;;;;10.70;99543.00;;;;4843637;29;20263;-70
2024/02/17 04:22:31;;;;;;;4.47;3.70;;;;;10.70;99547.00;;;;4843521;29;20060;-69
2024/02/17 04:24:57;;;;;;;5.68;4.55;;;;;10.70;99554.00;;;;4842780;29;20515;-70
2024/02/17 04:27:24;;;;;;;8.25;5.50;;;;;10.70;99553.00;;;;4844544;29;20080;-70
2024/02/17 04:29:50;;;;;;;8.32;4.68;;;;;10.70;99565.00;;;;4844002;29;20499;-69
2024/02/17 04:32:17;;;;;;;5.45;4.03;;;;;10.70;99563.00;;;;4843331;29;20065;-70
2024/02/17 04:34:44;;;;;;;6.53;4.80;;;;;10.70;99573.00;;;;4842923;29;20100;-70
2024/02/17 04:37:11;;;;;;;4.63;4.13;;;;;10.60;99568.00;;;;4842952;29;20064;-69
2024/02/17 04:39:37;;;;;;;2.92;2.65;;;;;10.30;99570.00;;;;4847540;29;20094;-70
2024/02/17 04:42:04;;;;;;;4.88;3.60;;;;;10.30;99581.00;;;;4843261;29;20419;-70
2024/02/17 04:44:31;;;;;;;4.93;3.65;;;;;10.30;99581.00;;;;4843266;29;20049;-70
2024/02/17 04:46:58;;;;;;;4.10;2.67;;;;;10.10;99577.00;;;;4842265;29;20081;-70
2024/02/17 04:49:24;;;;;;;3.30;3.00;;;;;10.00;99587.00;;;;4843192;29;20054;-70
2024/02/17 04:51:51;;;;;;;3.38;3.08;;;;;10.00;99597.00;;;;4843335;29;20458;-69
2024/02/17 04:54:18;;;;;;;3.20;2.90;;;;;9.90;99597.00;;;;4842096;29;20437;-70
2024/02/17 04:56:45;;;;;;;3.47;3.17;;;;;9.90;99596.00;;;;4842986;29;20053;-69
2024/02/17 04:59:11;;;;;;;3.20;2.85;;;;;10.00;99598.00;;;;4842802;29;20624;-69
2024/02/17 05:01:38;;;;;;;4.28;2.90;;;;;10.00;99599.00;;;;4842864;29;20054;-68
2024/02/17 05:04:05;;;;;;;3.30;2.90;;;;;10.00;99610.00;;;;4841832;29;20140;-71
2024/02/17 05:06:32;;;;;;;6.95;2.80;;;;;9.90;99598.00;;;;4826598;29;20060;-69
2024/02/17 05:08:59;;;;;;;4.10;2.67;;;;;9.80;99600.00;;;;4845508;29;20077;-69
2024/02/17 05:11:25;;;;;;;8.55;3.05;;;;;9.70;99605.00;;;;4850940;29;20053;-69
2024/02/17 05:13:52;;;;;;;16.88;3.95;;;;;9.60;99599.00;;;;4842621;29;20078;-68
2024/02/17 05:16:19;;;;;;;16.00;3.15;;;;;9.50;99602.00;;;;4841527;29;20126;-69
2024/02/17 05:18:45;;;;;;;3.83;2.60;;;;;9.40;99605.00;;;;4841437;29;20081;-69
2024/02/17 05:21:15;;;;;;;111.47;6.47;;;;;9.40;99609.00;;;;4842737;29;20057;-69
2024/02/17 05:23:42;;;;;;;11.77;3.40;;;;;9.30;99615.00;;;;4841532;29;20042;-68
2024/02/17 05:26:09;;;;;;;80.72;5.55;;;;;9.20;99612.00;;;;4842296;29;20077;-68
2024/02/17 05:28:35;;;;;;;12.55;3.70;;;;;9.20;99616.00;;;;4842445;29;20466;-69
2024/02/17 05:31:02;;;;;;;14.30;3.85;;;;;9.30;99622.00;;;;4841487;29;20050;-69
2024/02/17 05:33:28;;;;;;;25.58;4.55;;;;;9.30;99628.00;;;;4842513;29;20050;-68
2024/02/17 05:35:55;;;;;;;50.03;4.68;;;;;9.40;99623.00;;;;4841551;29;20110;-68
2024/02/17 05:38:22;;;;;;;12.63;3.65;;;;;9.40;99621.00;;;;4845083;29;20046;-69
2024/02/17 05:40:49;;;;;;;19.70;4.22;;;;;9.50;99630.00;;;;4840578;29;20130;-69
2024/02/17 05:43:15;;;;;;;15.00;4.18;;;;;9.50;99623.00;;;;4840960;29;20073;-69
2024/02/17 05:45:42;;;;;;;29.88;4.40;;;;;9.40;99628.00;;;;4841070;29;20050;-69
2024/02/17 05:48:09;;;;;;;9.88;4.50;;;;;9.20;99637.00;;;;4842293;29;20060;-69
2024/02/17 05:50:36;;;;;;;15.18;5.35;;;;;9.10;99645.00;;;;4840838;29;20056;-70
2024/02/17 05:53:03;;;;;;;23.77;5.22;;;;;9.10;99645.00;;;;4856132;29;20061;-69
2024/02/17 05:55:30;;;;;;;19.33;3.95;;;;;8.90;99646.00;;;;4856224;29;20049;-69
2024/02/17 05:57:56;;;;;;;13.45;4.28;;;;;8.90;99649.00;;;;4826066;29;20057;-69
2024/02/17 06:00:23;;;;;;;8.25;4.65;;;;;8.80;99649.00;;;;4842024;29;20260;-69
2024/02/17 06:02:50;;;;;;;16.80;4.65;;;;;8.80;99655.00;;;;4842108;29;20487;-69
2024/02/17 06:05:16;;;;;;;16.83;4.85;;;;;8.80;99657.00;;;;4840786;29;20046;-70
2024/02/17 06:07:43;;;;;;;8.13;5.40;;;;;8.80;99658.00;;;;4845547;29;20045;-69
2024/02/17 06:10:12;;;;;;;9.00;5.15;;;;;9.00;99665.00;;;;4840796;29;20058;-69
2024/02/17 06:12:39;;;;;;;12.68;5.30;;;;;9.10;99659.00;;;;4856025;29;20132;-70
2024/02/17 06:15:06;;;;;;;9.05;5.50;;;;;9.20;99666.00;;;;4841784;29;20128;-70
2024/02/17 06:17:41;;;;;;;9.00;5.38;;;;;9.10;99668.00;;;;4840803;29;20102;-70
2024/02/17 06:22:58;;;;;;;16.17;6.68;;;;;9.30;99677.00;;;;4841689;29;20068;-69
2024/02/17 06:25:24;;;;;;;32.95;6.95;;;;;9.30;99675.00;;;;4841776;29;20133;-69
2024/02/17 06:27:51;;;;;;;67.82;12.60;;;;;9.20;99676.00;;;;4841685;29;20456;-69
2024/02/17 06:30:18;;;;;;;33.95;10.75;;;;;9.10;99683.00;;;;4840300;29;20057;-69
2024/02/17 06:32:46;;;;;;;42.08;16.50;;;;;9.00;99676.00;;;;4855586;29;20058;-69
2024/02/17 06:35:13;;;;;;;40.63;7.50;;;;;9.00;99688.00;;;;4840382;29;20053;-69
2024/02/17 06:37:41;;;;;;;31.05;5.53;;;;;9.00;99690.00;;;;4853857;29;20048;-69
2024/02/17 06:40:08;;;;;;;24.17;5.72;;;;;9.10;99705.00;;;;4852749;29;20140;-69
2024/02/17 06:42:34;;;;;;;18.30;5.53;;;;;9.10;99705.00;;;;4849176;29;20085;-69
2024/02/17 06:45:01;;;;;;;17.90;4.97;;;;;9.10;99711.00;;;;4847322;29;20069;-69
2024/02/17 06:47:28;;;;;;;74.47;6.78;;;;;9.10;99717.00;;;;4841807;29;20122;-69
2024/02/17 06:49:54;;;;;;;39.85;6.10;;;;;9.10;99712.00;;;;4840338;29;20077;-70
2024/02/17 06:52:21;;;;;;;29.63;4.90;;;;;9.10;99719.00;;;;4844348;29;20129;-69
2024/02/17 06:54:48;;;;;;;14.18;4.88;;;;;9.20;99724.00;;;;4846024;29;20046;-69
2024/02/17 06:57:14;;;;;;;10.90;4.30;;;;;9.20;99728.00;;;;4845283;29;20180;-69
2024/02/17 06:59:41;;;;;;;23.77;4.32;;;;;9.20;99729.00;;;;4843911;29;20050;-69
2024/02/17 07:02:08;;;;;;;4.85;3.95;;;;;9.30;99738.00;;;;4843773;29;20050;-69
2024/02/17 07:04:34;;;;;;;6.15;3.53;;;;;9.30;99737.00;;;;4845168;29;20132;-69
2024/02/17 07:07:01;;;;;;;6.47;3.60;;;;;9.30;99752.00;;;;4845561;29;20060;-69
2024/02/17 07:09:29;;;;;;;6.68;3.65;;;;;9.30;99753.00;;;;4847507;29;20046;-70
2024/02/17 07:11:57;;;;;;;16.20;4.68;;;;;9.30;99763.00;;;;4844863;29;20041;-70
2024/02/17 07:14:24;;;;;;;6.75;4.55;;;;;9.40;99775.00;;;;4843802;29;20060;-69
2024/02/17 07:16:50;;;;;;;13.90;4.88;;;;;9.40;99774.00;;;;4845312;29;20448;-69
2024/02/17 07:19:17;;;;;;;9.60;4.80;;;;;9.40;99775.00;;;;4843712;29;20110;-69
2024/02/17 07:21:43;;;;;;;10.20;5.28;;;;;9.50;99780.00;;;;4843547;29;20057;-70
2024/02/17 07:24:10;;;;;;;10.48;5.00;;;;;9.60;99784.00;;;;4845288;29;20137;-69
2024/02/17 07:26:42;;;;;;;7.88;5.00;;;;;9.40;99790.00;;;;4844875;29;20518;-69
2024/02/17 07:29:10;;;;;;;8.20;4.65;;;;;9.30;99789.00;;;;4844540;29;20114;-69
2024/02/17 07:31:40;;;;;;;6.32;4.78;;;;;9.30;99792.00;;;;4845076;29;20101;-70
2024/02/17 07:34:08;;;;;;;8.07;4.93;;;;;9.50;99792.00;;;;4844910;29;20098;-70
2024/02/17 07:36:35;;;;;;;9.23;5.05;;;;;9.50;99809.00;;;;4844719;29;20046;-69
2024/02/17 07:39:02;;;;;;;11.10;5.07;;;;;9.60;99804.00;;;;4843010;29;20042;-70
2024/02/17 07:41:28;;;;;;;26.50;6.97;;;;;9.40;99808.00;;;;4845403;29;20046;-69
2024/02/17 07:43:55;;;;;;;13.07;9.30;;;;;9.30;99810.00;;;;4848764;29;20088;-70
2024/02/17 07:46:22;;;;;;;15.10;7.45;;;;;9.10;99805.00;;;;4844613;29;20068;-68
2024/02/17 07:48:49;;;;;;;28.98;7.97;;;;;9.10;99818.00;;;;4858443;29;20050;-68
2024/02/17 07:51:16;;;;;;;11.48;6.25;;;;;9.10;99824.00;;;;4844512;29;20464;-69
2024/02/17 07:53:43;;;;;;;8.65;6.78;;;;;9.10;99827.00;;;;4849379;29;20060;-69
2024/02/17 07:56:10;;;;;;;8.88;6.80;;;;;9.10;99829.00;;;;4844409;29;20124;-69
2024/02/17 07:58:37;;;;;;;8.75;7.20;;;;;9.10;99834.00;;;;4844357;29;20042;-68
2024/02/17 08:01:03;;;;;;;7.57;6.05;;;;;9.20;99842.00;;;;4844344;29;20125;-69
2024/02/17 08:03:30;;;;;;;9.25;6.82;;;;;9.30;99834.00;;;;4842415;29;20088;-69
2024/02/17 08:05:57;;;;;;;9.77;7.10;;;;;9.30;99844.00;;;;4844251;29;20129;-69
2024/02/17 08:08:24;;;;;;;11.57;7.82;;;;;9.30;99841.00;;;;4846431;29;20094;-68
2024/02/17 08:10:51;;;;;;;12.75;8.30;;;;;9.30;99856.00;;;;4854583;29;20046;-70
2024/02/17 08:13:18;;;;;;;13.57;9.55;;;;;9.30;99857.00;;;;4823963;29;20050;-68
2024/02/17 08:15:45;;;;;;;14.40;9.43;;;;;9.50;99864.00;;;;4825495;29;20491;-69
2024/02/17 08:18:11;;;;;;;13.55;8.30;;;;;9.80;99873.00;;;;4825421;29;20137;-71
2024/02/17 08:20:38;;;;;;;13.35;9.38;;;;;10.00;99877.00;;;;4823959;29;20111;-70
2024/02/17 08:23:05;;;;;;;15.38;8.73;;;;;10.10;99879.00;;;;4824150;29;20054;-70
2024/02/17 08:25:31;;;;;;;13.45;9.00;;;;;10.20;99883.00;;;;4825134;29;20122;-69
2024/02/17 08:27:58;;;;;;;15.13;8.50;;;;;10.40;99892.00;;;;4826020;29;20050;-70
2024/02/17 08:30:24;;;;;;;12.40;8.75;;;;;10.40;99895.00;;;;4839615;29;20055;-68
2024/02/17 08:32:54;;;;;;;14.43;9.07;;;;;10.50;99894.00;;;;4824065;29;20504;-71
2024/02/17 08:35:20;;;;;;;11.50;8.60;;;;;10.60;99892.00;;;;4825073;29;20095;-71
2024/02/17 08:37:47;;;;;;;14.60;9.32;;;;;10.60;99903.00;;;;4832646;29;20045;-71
2024/02/17 08:40:14;;;;;;;13.43;9.20;;;;;10.40;99910.00;;;;4842918;29;20053;-71
2024/02/17 08:42:41;;;;;;;16.90;9.43;;;;;10.30;99901.00;;;;4842028;29;20049;-71
2024/02/17 08:45:08;;;;;;;13.40;8.45;;;;;10.40;99906.00;;;;4843300;29;20064;-71
2024/02/17 08:47:35;;;;;;;13.80;8.63;;;;;10.50;99912.00;;;;4842139;29;20050;-71
2024/02/17 08:50:01;;;;;;;14.35;9.50;;;;;10.60;99919.00;;;;4843094;29;20050;-71
2024/02/17 08:52:28;;;;;;;13.68;8.50;;;;;10.80;99920.00;;;;4841802;29;20065;-71
2024/02/17 08:54:55;;;;;;;13.50;8.90;;;;;11.00;99926.00;;;;4841861;29;20435;-71
2024/02/17 08:57:21;;;;;;;9.05;7.45;;;;;11.20;99931.00;;;;4841655;29;20054;-71
2024/02/17 08:59:48;;;;;;;11.32;8.05;;;;;11.30;99933.00;;;;4856950;29;20046;-71
2024/02/17 09:02:17;;;;;;;8.00;6.45;;;;;11.40;99933.00;;;;4826574;29;20325;-72
2024/02/17 09:04:45;;;;;;;6.72;5.03;;;;;11.50;99932.00;;;;4843318;29;20062;-72
2024/02/17 09:07:12;;;;;;;7.45;5.70;;;;;11.60;99931.00;;;;4841535;29;20393;-72
2024/02/17 09:09:39;;;;;;;7.90;4.75;;;;;11.70;99939.00;;;;4846535;29;20042;-72
2024/02/17 09:12:06;;;;;;;6.10;5.20;;;;;11.80;99939.00;;;;4841303;29;20053;-72
2024/02/17 09:14:34;;;;;;;6.13;4.28;;;;;11.80;99938.00;;;;4842080;29;20132;-72
2024/02/17 09:17:00;;;;;;;6.20;4.25;;;;;11.80;99943.00;;;;4841536;29;20491;-72
2024/02/17 09:19:27;;;;;;;5.28;4.72;;;;;11.80;99947.00;;;;4842693;29;20129;-70
2024/02/17 09:21:55;;;;;;;4.95;4.45;;;;;11.90;99949.00;;;;4841436;29;20488;-72
2024/02/17 09:24:25;;;;;;;6.40;5.05;;;;;11.90;99948.00;;;;4841842;29;20110;-72
2024/02/17 09:26:55;;;;;;;5.78;4.47;;;;;12.00;99947.00;;;;4843460;29;20050;-70
2024/02/17 09:29:22;;;;;;;9.43;5.97;;;;;12.10;99948.00;;;;4845165;29;20053;-71
2024/02/17 09:31:48;;;;;;;5.53;3.20;;;;;12.30;99953.00;;;;4843520;29;20065;-69
2024/02/17 09:34:15;;;;;;;6.10;3.60;;;;;13.20;99965.00;;;;4842945;29;20137;-69
2024/02/17 09:36:43;;;;;;;5.05;3.60;;;;;13.80;99966.00;;;;4841897;29;20117;-71
2024/02/17 09:39:10;;;;;;;5.20;3.92;;;;;14.30;99968.00;;;;4841883;29;20089;-70
2024/02/17 09:41:37;;;;;;;5.53;3.78;;;;;14.70;99969.00;;;;4842839;29;20114;-69
2024/02/17 09:44:04;;;;;;;4.60;3.22;;;;;14.90;99984.00;;;;4843731;29;20093;-70
2024/02/17 09:46:31;;;;;;;5.72;3.42;;;;;15.10;99983.00;;;;4842258;29;20543;-69
2024/02/17 09:49:03;;;;;;;6.07;4.93;;;;;15.00;99987.00;;;;4856275;29;20141;-69
2024/02/17 09:51:31;;;;;;;5.10;3.88;;;;;14.80;99981.00;;;;4842189;29;20045;-69
2024/02/17 09:53:57;;;;;;;6.55;4.38;;;;;14.90;99980.00;;;;4840920;29;20061;-69
2024/02/17 09:56:25;;;;;;;7.90;4.43;;;;;14.80;99986.00;;;;4841028;29;20045;-71
2024/02/17 09:58:52;;;;;;;4.47;3.70;;;;;14.70;99992.00;;;;4841952;29;20054;-69
2024/02/17 10:01:26;;;;;;;6.72;4.80;;;;;14.70;99988.00;;;;4842051;29;20476;-69
2024/02/17 10:03:54;;;;;;;5.35;4.18;;;;;15.00;99995.00;;;;4842391;29;20083;-71
2024/02/17 10:06:21;;;;;;;4.80;4.30;;;;;15.60;100006.00;;;;4842499;29;20070;-70
2024/02/17 10:08:49;;;;;;;8.50;5.95;;;;;15.30;100004.00;;;;4841665;29;20136;-70
2024/02/17 10:11:16;;;;;;;7.10;5.88;;;;;14.70;100001.00;;;;4826139;29;20075;-70
2024/02/17 10:13:57;;;;;;;6.82;4.93;;;;;15.10;100006.00;;;;4841939;29;20050;-70
2024/02/17 10:16:24;;;;;;;6.72;5.40;;;;;15.30;100016.00;;;;4842060;29;20042;-70
2024/02/17 10:18:51;;;;;;;10.05;5.20;;;;;15.50;100021.00;;;;4842395;29;20081;-69
2024/02/17 10:21:20;;;;;;;10.55;6.03;;;;;15.40;100020.00;;;;4846376;29;20057;-70
2024/02/17 10:23:46;;;;;;;5.88;4.82;;;;;15.00;100022.00;;;;4841040;29;20050;-70
2024/02/17 10:26:14;;;;;;;6.88;6.03;;;;;15.20;100030.00;;;;4841736;29;20280;-69
2024/02/17 10:28:41;;;;;;;7.15;5.65;;;;;14.90;100028.00;;;;4841767;29;20567;-69
2024/02/17 10:31:08;;;;;;;7.85;6.30;;;;;14.90;100039.00;;;;4856262;29;20073;-72
2024/02/17 10:33:38;;;;;;;5.63;3.80;;;;;14.90;100022.00;;;;4842278;29;20050;-70
2024/02/17 10:36:07;;;;;;;8.15;5.10;;;;;15.30;100037.00;;;;4858771;29;20065;-70
2024/02/17 10:38:34;;;;;;;7.85;5.20;;;;;15.70;100032.00;;;;4847645;29;20052;-72
2024/02/17 10:41:01;;;;;;;8.75;4.10;;;;;15.90;100041.00;;;;4839457;29;20047;-69
2024/02/17 10:43:28;;;;;;;5.15;4.10;;;;;16.30;100041.00;;;;4824942;29;20115;-73
2024/02/17 10:45:56;;;;;;;7.70;4.53;;;;;16.40;100044.00;;;;4825100;29;20530;-71
2024/02/17 10:48:24;;;;;;;7.63;5.40;;;;;16.60;100039.00;;;;4837543;29;20050;-71
2024/02/17 10:50:52;;;;;;;4.25;3.53;;;;;16.60;100046.00;;;;4822528;29;20076;-71
2024/02/17 10:53:39;;;;;;;6.22;3.70;;;;;16.90;100047.00;;;;4837871;29;20055;-71
2024/02/17 10:56:13;;;;;;;9.27;6.18;;;;;16.80;100056.00;;;;4824166;29;20054;-71
2024/02/17 10:58:40;;;;;;;7.90;5.57;;;;;16.50;100053.00;;;;4823936;29;20050;-71
2024/02/17 11:01:09;;;;;;;6.18;3.75;;;;;17.00;100056.00;;;;4837638;29;20056;-71
2024/02/17 11:03:37;;;;;;;11.32;6.35;;;;;17.20;100058.00;;;;4837417;29;20555;-71
2024/02/17 11:06:08;;;;;;;8.13;4.60;;;;;17.50;100060.00;;;;4807664;29;20050;-71
2024/02/17 11:08:35;;;;;;;8.63;5.38;;;;;17.80;100056.00;;;;4836051;29;20046;-71
2024/02/17 11:11:21;;;;;;;12.80;4.70;;;;;18.00;100073.00;;;;4837477;29;20046;-71
2024/02/17 11:13:48;;;;;;;10.57;5.80;;;;;18.30;100073.00;;;;4824259;29;20126;-70
2024/02/17 11:16:14;;;;;;;7.13;3.92;;;;;18.00;100063.00;;;;4824140;29;20089;-70
2024/02/17 11:18:44;;;;;;;9.65;5.68;;;;;17.90;100065.00;;;;4823599;29;20046;-69
2024/02/17 11:21:11;;;;;;;7.40;6.00;;;;;17.30;100064.00;;;;4823801;29;20523;-69
2024/02/17 11:23:40;;;;;;;10.00;6.53;;;;;17.00;100061.00;;;;4823649;29;20046;-69
2024/02/17 11:26:08;;;;;;;6.55;5.82;;;;;16.80;100060.00;;;;4823344;29;20095;-69
2024/02/17 11:28:35;;;;;;;10.30;7.80;;;;;16.70;100060.00;;;;4822634;29;20058;-69
2024/02/17 11:31:06;;;;;;;6.75;5.93;;;;;16.80;100047.00;;;;4821876;29;20123;-71
2024/02/17 11:33:33;;;;;;;9.95;6.10;;;;;16.80;100054.00;;;;4823020;29;20120;-68
2024/02/17 11:36:07;;;;;;;9.75;6.32;;;;;16.60;100049.00;;;;4823101;29;20545;-68
2024/02/17 11:38:35;;;;;;;6.32;5.20;;;;;16.60;100048.00;;;;4842111;29;20050;-71
2024/02/17 11:41:03;;;;;;;8.48;5.60;;;;;16.70;100044.00;;;;4844014;29;20052;-70
2024/02/17 11:43:34;;;;;;;8.65;6.00;;;;;16.80;100041.00;;;;4845008;29;20564;-71
2024/02/17 11:46:03;;;;;;;10.40;6.28;;;;;16.90;100052.00;;;;4848152;29;20053;-71
2024/02/17 11:48:31;;;;;;;8.35;5.88;;;;;16.90;100054.00;;;;4844188;29;20500;-71
2024/02/17 11:51:06;;;;;;;8.85;5.25;;;;;16.80;100039.00;;;;4844416;29;20081;-70
2024/02/17 11:53:33;;;;;;;7.63;6.20;;;;;16.40;100025.00;;;;4842935;29;20106;-71
2024/02/17 11:56:00;;;;;;;8.25;5.32;;;;;16.20;100033.00;;;;4843193;29;20046;-72
2024/02/17 11:58:29;;;;;;;8.73;6.00;;;;;16.00;100022.00;;;;4843241;29;20073;-71
2024/02/17 12:00:57;;;;;;;7.72;6.00;;;;;16.20;100026.00;;;;4845249;29;20133;-72
2024/02/17 12:03:27;;;;;;;8.32;6.13;;;;;16.40;100033.00;;;;4861042;29;20071;-72
2024/02/17 12:06:00;;;;;;;11.68;5.88;;;;;16.50;100024.00;;;;4842835;29;20065;-72
2024/02/17 12:08:29;;;;;;;8.93;5.30;;;;;16.50;100019.00;;;;4848026;29;20050;-72
2024/02/17 12:10:57;;;;;;;6.65;4.70;;;;;16.70;100025.00;;;;4844645;29;20057;-73
2024/02/17 12:13:24;;;;;;;7.30;5.35;;;;;16.70;100017.00;;;;4827291;29;20057;-72
2024/02/17 12:15:51;;;;;;;6.10;5.07;;;;;16.70;100016.00;;;;4858008;29;20061;-72
2024/02/17 12:18:19;;;;;;;5.93;5.13;;;;;16.80;100012.00;;;;4843991;29;20046;-73